Aleksandr Zhitnik — EMBN — position and weather

sailwx.info

Track history (hours):
 
Tides and Currents Weather Stations Pressure Air Temp Water Temp Dewpoint Dewpoint Depression Visibility Wind Speed Wind Dir Waves Ship Positions

Aleksandr Zhitnik

Last reported at 2017-Jun-27 01:30 UTC. Time now 2017-Jun-27 01:54 UTC.
Position N 43°60' E 022°54'.

Length 85 m; draft 2.1 m.

MMSI: 272089600.

Date/timePositionNaut miles runAvg speedWind from/ knotsBaromVisibWave heightAir tempDewpointWater temp
2017-Jun-27 01:30N 43°60' E 022°54'1 2.2
2017-Jun-27 01:00N 43°59' E 022°53'1 2.1
2017-Jun-27 00:30N 43°58' E 022°53'1 2.6
2017-Jun-27 00:00N 43°57' E 022°52'1 2.1
2017-Jun-26 23:30N 43°56' E 022°52'1 1.9
2017-Jun-26 23:00N 43°55' E 022°51'1 2.0
2017-Jun-26 22:30N 43°54' E 022°51'1 2.1
2017-Jun-26 22:00N 43°53' E 022°50'1 2.0
2017-Jun-26 21:30N 43°52' E 022°51'1 2.2
2017-Jun-26 21:00N 43°51' E 022°51'1 2.3
2017-Jun-26 20:30N 43°50' E 022°52'1 2.4
2017-Jun-26 20:00N 43°50' E 022°54'1 2.5
2017-Jun-26 19:30N 43°50' E 022°55'1 2.4
2017-Jun-26 19:00N 43°49' E 022°57'1 2.0
2017-Jun-26 18:27N 43°49' E 022°58'1 1.9
2017-Jun-26 17:54N 43°49' E 022°60'1 1.9
2017-Jun-26 17:30N 43°48' E 023°01'1 1.7
2017-Jun-26 16:59N 43°48' E 023°02'4 1.5
2017-Jun-26 14:34N 43°48' E 023°07'0 1.5
2017-Jun-26 14:27N 43°48' E 023°07'5 1.9
2017-Jun-26 12:05N 43°50' E 023°13'0 1.9
2017-Jun-26 11:59N 43°50' E 023°13'2 1.9
2017-Jun-26 11:01N 43°51' E 023°16'0 2.4
2017-Jun-26 10:57N 43°51' E 023°16'1 2.2
2017-Jun-26 10:30N 43°51' E 023°17'2 2.0
2017-Jun-26 09:41N 43°51' E 023°19'7 2.1
2017-Jun-26 06:22N 43°50' E 023°29'1 1.7
2017-Jun-26 06:00N 43°50' E 023°30'6 2.1
2017-Jun-26 03:14N 43°47' E 023°37'1 2.4
2017-Jun-26 03:00N 43°47' E 023°38'1 2.6
2017-Jun-26 02:30N 43°48' E 023°40'1 2.5
2017-Jun-26 02:00N 43°48' E 023°41'1 1.9
2017-Jun-26 01:24N 43°48' E 023°43'1 1.9
2017-Jun-26 00:40N 43°48' E 023°45'  
Track history (hours):
 
Tides and Currents Weather Stations Pressure Air Temp Water Temp Dewpoint Dewpoint Depression Visibility Wind Speed Wind Dir Waves Ship Positions

Aleksandr Zhitnik

Last reported at 2017-Jun-27 01:30 UTC. Time now 2017-Jun-27 01:54 UTC.
Position N 43°60' E 022°54'.

Length 85 m; draft 2.1 m.

MMSI: 272089600.

Date/timePositionNaut miles runAvg speedWind from/ knotsBaromVisibWave heightAir tempDewpointWater temp
2017-Jun-27 01:30N 43°60' E 022°54'1 2.2
2017-Jun-27 01:00N 43°59' E 022°53'1 2.1
2017-Jun-27 00:30N 43°58' E 022°53'1 2.6
2017-Jun-27 00:00N 43°57' E 022°52'1 2.1
2017-Jun-26 23:30N 43°56' E 022°52'1 1.9
2017-Jun-26 23:00N 43°55' E 022°51'1 2.0
2017-Jun-26 22:30N 43°54' E 022°51'1 2.1
2017-Jun-26 22:00N 43°53' E 022°50'1 2.0
2017-Jun-26 21:30N 43°52' E 022°51'1 2.2
2017-Jun-26 21:00N 43°51' E 022°51'1 2.3
2017-Jun-26 20:30N 43°50' E 022°52'1 2.4
2017-Jun-26 20:00N 43°50' E 022°54'1 2.5
2017-Jun-26 19:30N 43°50' E 022°55'1 2.4
2017-Jun-26 19:00N 43°49' E 022°57'1 2.0
2017-Jun-26 18:27N 43°49' E 022°58'1 1.9
2017-Jun-26 17:54N 43°49' E 022°60'1 1.9
2017-Jun-26 17:30N 43°48' E 023°01'1 1.7
2017-Jun-26 16:59N 43°48' E 023°02'4 1.5
2017-Jun-26 14:34N 43°48' E 023°07'0 1.5
2017-Jun-26 14:27N 43°48' E 023°07'5 1.9
2017-Jun-26 12:05N 43°50' E 023°13'0 1.9
2017-Jun-26 11:59N 43°50' E 023°13'2 1.9
2017-Jun-26 11:01N 43°51' E 023°16'0 2.4
2017-Jun-26 10:57N 43°51' E 023°16'1 2.2
2017-Jun-26 10:30N 43°51' E 023°17'2 2.0
2017-Jun-26 09:41N 43°51' E 023°19'7 2.1
2017-Jun-26 06:22N 43°50' E 023°29'1 1.7
2017-Jun-26 06:00N 43°50' E 023°30'6 2.1
2017-Jun-26 03:14N 43°47' E 023°37'1 2.4
2017-Jun-26 03:00N 43°47' E 023°38'1 2.6
2017-Jun-26 02:30N 43°48' E 023°40'1 2.5
2017-Jun-26 02:00N 43°48' E 023°41'1 1.9
2017-Jun-26 01:24N 43°48' E 023°43'1 1.9
2017-Jun-26 00:40N 43°48' E 023°45'  

Dump ship's entire track history